sensor_id;sensor_type;location;lat;lon;timestamp;pressure;altitude;pressure_sealevel;temperature;humidity
15794;BME280;7999;51.208;4.244;2022-08-20T00:02:20;101628.56;;;17.46;99.40
15794;BME280;7999;51.208;4.244;2022-08-20T00:04:47;101632.06;;;17.46;99.41
15794;BME280;7999;51.208;4.244;2022-08-20T00:07:14;101624.91;;;17.56;98.46
15794;BME280;7999;51.208;4.244;2022-08-20T00:09:41;101625.72;;;17.59;98.23
15794;BME280;7999;51.208;4.244;2022-08-20T00:12:09;101624.06;;;17.52;98.91
15794;BME280;7999;51.208;4.244;2022-08-20T00:14:38;101617.00;;;17.57;98.64
15794;BME280;7999;51.208;4.244;2022-08-20T00:17:04;101617.75;;;17.64;98.01
15794;BME280;7999;51.208;4.244;2022-08-20T00:19:32;101624.13;;;17.49;98.46
15794;BME280;7999;51.208;4.244;2022-08-20T00:22:00;101627.66;;;17.48;98.33
15794;BME280;7999;51.208;4.244;2022-08-20T00:24:26;101631.47;;;17.29;99.76
15794;BME280;7999;51.208;4.244;2022-08-20T00:26:54;101641.63;;;17.50;98.89
15794;BME280;7999;51.208;4.244;2022-08-20T00:29:21;101638.09;;;17.51;99.26
15794;BME280;7999;51.208;4.244;2022-08-20T00:31:50;101636.31;;;17.56;98.45
15794;BME280;7999;51.208;4.244;2022-08-20T00:34:17;101638.09;;;17.54;98.39
15794;BME280;7999;51.208;4.244;2022-08-20T00:36:44;101632.94;;;17.45;98.79
15794;BME280;7999;51.208;4.244;2022-08-20T00:39:11;101636.53;;;17.41;99.35
15794;BME280;7999;51.208;4.244;2022-08-20T00:41:38;101636.44;;;17.47;98.98
15794;BME280;7999;51.208;4.244;2022-08-20T00:44:06;101638.38;;;17.36;98.53
15794;BME280;7999;51.208;4.244;2022-08-20T00:46:33;101632.47;;;17.20;98.75
15794;BME280;7999;51.208;4.244;2022-08-20T00:49:03;101645.69;;;17.16;99.39
15794;BME280;7999;51.208;4.244;2022-08-20T00:51:34;101631.78;;;17.08;98.85
15794;BME280;7999;51.208;4.244;2022-08-20T00:54:03;101636.13;;;17.10;97.91
15794;BME280;7999;51.208;4.244;2022-08-20T00:56:32;101634.63;;;16.92;98.33
15794;BME280;7999;51.208;4.244;2022-08-20T00:58:59;101635.41;;;17.01;97.93
15794;BME280;7999;51.208;4.244;2022-08-20T01:01:27;101635.56;;;16.88;97.99
15794;BME280;7999;51.208;4.244;2022-08-20T01:03:54;101639.16;;;16.81;98.32
15794;BME280;7999;51.208;4.244;2022-08-20T01:06:23;101632.94;;;16.87;98.20
15794;BME280;7999;51.208;4.244;2022-08-20T01:08:50;101632.09;;;16.86;98.17
15794;BME280;7999;51.208;4.244;2022-08-20T01:11:18;101628.69;;;16.78;97.71
15794;BME280;7999;51.208;4.244;2022-08-20T01:13:47;101632.34;;;16.66;97.83
15794;BME280;7999;51.208;4.244;2022-08-20T01:16:16;101633.22;;;16.62;97.97
15794;BME280;7999;51.208;4.244;2022-08-20T01:18:45;101627.16;;;16.59;98.68
15794;BME280;7999;51.208;4.244;2022-08-20T01:21:14;101635.97;;;16.55;99.01
15794;BME280;7999;51.208;4.244;2022-08-20T01:23:44;101631.59;;;16.54;99.20
15794;BME280;7999;51.208;4.244;2022-08-20T01:26:16;101631.72;;;16.46;100.00
15794;BME280;7999;51.208;4.244;2022-08-20T01:28:44;101634.22;;;16.54;99.64
15794;BME280;7999;51.208;4.244;2022-08-20T01:31:13;101636.03;;;16.49;99.33
15794;BME280;7999;51.208;4.244;2022-08-20T01:33:41;101634.34;;;16.45;99.53
15794;BME280;7999;51.208;4.244;2022-08-20T01:36:08;101638.78;;;16.38;99.78
15794;BME280;7999;51.208;4.244;2022-08-20T01:38:35;101643.13;;;16.41;100.00
15794;BME280;7999;51.208;4.244;2022-08-20T01:41:06;101634.47;;;16.32;99.44
15794;BME280;7999;51.208;4.244;2022-08-20T01:43:38;101638.03;;;16.28;99.70
15794;BME280;7999;51.208;4.244;2022-08-20T01:46:06;101641.56;;;16.26;99.55
15794;BME280;7999;51.208;4.244;2022-08-20T01:48:34;101645.91;;;16.27;99.54
15794;BME280;7999;51.208;4.244;2022-08-20T01:51:10;101642.47;;;16.22;99.75
15794;BME280;7999;51.208;4.244;2022-08-20T01:53:39;101641.56;;;16.24;98.57
15794;BME280;7999;51.208;4.244;2022-08-20T01:56:09;101650.44;;;16.11;99.62
15794;BME280;7999;51.208;4.244;2022-08-20T01:58:38;101643.47;;;16.10;99.71
15794;BME280;7999;51.208;4.244;2022-08-20T02:01:05;101648.78;;;16.04;99.93
15794;BME280;7999;51.208;4.244;2022-08-20T02:03:32;101651.28;;;16.13;99.28
15794;BME280;7999;51.208;4.244;2022-08-20T02:05:59;101651.34;;;16.08;99.46
15794;BME280;7999;51.208;4.244;2022-08-20T02:08:26;101652.25;;;16.06;99.54
15794;BME280;7999;51.208;4.244;2022-08-20T02:10:53;101654.00;;;16.04;99.54
15794;BME280;7999;51.208;4.244;2022-08-20T02:13:21;101654.16;;;15.92;100.00
15794;BME280;7999;51.208;4.244;2022-08-20T02:15:50;101655.72;;;16.08;100.00
15794;BME280;7999;51.208;4.244;2022-08-20T02:18:17;101653.91;;;16.13;100.00
15794;BME280;7999;51.208;4.244;2022-08-20T02:20:45;101648.66;;;16.15;100.00
15794;BME280;7999;51.208;4.244;2022-08-20T02:23:12;101648.81;;;16.01;100.00
15794;BME280;7999;51.208;4.244;2022-08-20T02:25:40;101645.41;;;15.93;100.00
15794;BME280;7999;51.208;4.244;2022-08-20T02:28:09;101653.22;;;15.96;99.73
15794;BME280;7999;51.208;4.244;2022-08-20T02:30:38;101650.72;;;15.81;100.00
15794;BME280;7999;51.208;4.244;2022-08-20T02:33:08;101655.13;;;15.79;100.00
15794;BME280;7999;51.208;4.244;2022-08-20T02:35:36;101651.63;;;15.80;100.00
15794;BME280;7999;51.208;4.244;2022-08-20T02:38:03;101643.72;;;15.83;100.00
15794;BME280;7999;51.208;4.244;2022-08-20T02:40:30;101648.06;;;15.85;100.00
15794;BME280;7999;51.208;4.244;2022-08-20T02:42:57;101650.75;;;15.77;100.00
15794;BME280;7999;51.208;4.244;2022-08-20T02:45:24;101651.72;;;15.70;100.00
15794;BME280;7999;51.208;4.244;2022-08-20T02:47:51;101661.34;;;15.68;100.00
15794;BME280;7999;51.208;4.244;2022-08-20T02:50:22;101664.00;;;15.64;100.00
15794;BME280;7999;51.208;4.244;2022-08-20T02:52:50;101654.38;;;15.64;100.00
15794;BME280;7999;51.208;4.244;2022-08-20T02:55:18;101652.63;;;15.66;100.00
15794;BME280;7999;51.208;4.244;2022-08-20T02:57:45;101650.91;;;15.59;100.00
15794;BME280;7999;51.208;4.244;2022-08-20T03:00:14;101644.75;;;15.66;100.00
15794;BME280;7999;51.208;4.244;2022-08-20T03:02:43;101650.03;;;15.57;100.00
15794;BME280;7999;51.208;4.244;2022-08-20T03:05:10;101650.88;;;15.65;100.00
15794;BME280;7999;51.208;4.244;2022-08-20T03:07:42;101647.44;;;15.54;100.00
15794;BME280;7999;51.208;4.244;2022-08-20T03:10:09;101656.25;;;15.44;100.00
15794;BME280;7999;51.208;4.244;2022-08-20T03:12:37;101645.66;;;15.55;100.00
15794;BME280;7999;51.208;4.244;2022-08-20T03:15:04;101650.06;;;15.53;100.00
15794;BME280;7999;51.208;4.244;2022-08-20T03:17:31;101646.59;;;15.51;99.80
15794;BME280;7999;51.208;4.244;2022-08-20T03:19:59;101648.34;;;15.50;99.55
15794;BME280;7999;51.208;4.244;2022-08-20T03:22:25;101650.97;;;15.47;99.83
15794;BME280;7999;51.208;4.244;2022-08-20T03:24:54;101649.19;;;15.51;99.14
15794;BME280;7999;51.208;4.244;2022-08-20T03:27:21;101647.56;;;15.33;99.05
15794;BME280;7999;51.208;4.244;2022-08-20T03:29:47;101643.22;;;15.35;99.72
15794;BME280;7999;51.208;4.244;2022-08-20T03:32:15;101651.06;;;15.32;99.81
15794;BME280;7999;51.208;4.244;2022-08-20T03:34:41;101651.06;;;15.32;99.74
15794;BME280;7999;51.208;4.244;2022-08-20T03:37:08;101640.66;;;15.26;99.43
15794;BME280;7999;51.208;4.244;2022-08-20T03:39:36;101658.06;;;15.30;99.68
15794;BME280;7999;51.208;4.244;2022-08-20T03:42:04;101658.97;;;15.26;99.76
15794;BME280;7999;51.208;4.244;2022-08-20T03:44:31;101662.50;;;15.23;99.47
15794;BME280;7999;51.208;4.244;2022-08-20T03:46:58;101663.38;;;15.21;99.15
15794;BME280;7999;51.208;4.244;2022-08-20T03:49:24;101659.94;;;15.17;99.96
15794;BME280;7999;51.208;4.244;2022-08-20T03:51:51;101664.31;;;15.12;99.67
15794;BME280;7999;51.208;4.244;2022-08-20T03:54:18;101665.19;;;15.06;99.50
15794;BME280;7999;51.208;4.244;2022-08-20T03:56:45;101674.81;;;15.09;99.61
15794;BME280;7999;51.208;4.244;2022-08-20T03:59:13;101673.94;;;15.05;98.82
15794;BME280;7999;51.208;4.244;2022-08-20T04:01:40;101673.06;;;15.06;99.17
15794;BME280;7999;51.208;4.244;2022-08-20T04:04:07;101666.94;;;15.06;98.72
15794;BME280;7999;51.208;4.244;2022-08-20T04:06:35;101670.47;;;15.00;98.64
15794;BME280;7999;51.208;4.244;2022-08-20T04:09:02;101680.09;;;14.97;98.37
15794;BME280;7999;51.208;4.244;2022-08-20T04:11:29;101678.31;;;15.02;99.38
15794;BME280;7999;51.208;4.244;2022-08-20T04:13:57;101685.34;;;14.97;99.98
15794;BME280;7999;51.208;4.244;2022-08-20T04:16:26;101686.16;;;15.09;99.91
15794;BME280;7999;51.208;4.244;2022-08-20T04:18:53;101691.34;;;15.17;99.33
15794;BME280;7999;51.208;4.244;2022-08-20T04:21:20;101690.53;;;15.04;99.45
15794;BME280;7999;51.208;4.244;2022-08-20T04:23:47;101688.78;;;15.06;99.10
15794;BME280;7999;51.208;4.244;2022-08-20T04:26:14;101691.44;;;15.00;99.81
15794;BME280;7999;51.208;4.244;2022-08-20T04:28:40;101687.94;;;14.98;99.41
15794;BME280;7999;51.208;4.244;2022-08-20T04:31:07;101695.78;;;15.01;99.44
15794;BME280;7999;51.208;4.244;2022-08-20T04:33:35;101694.88;;;15.05;99.50
15794;BME280;7999;51.208;4.244;2022-08-20T04:36:03;101695.78;;;15.00;99.21
15794;BME280;7999;51.208;4.244;2022-08-20T04:38:31;101698.47;;;14.88;99.25
15794;BME280;7999;51.208;4.244;2022-08-20T04:40:58;101694.16;;;14.82;98.67
15794;BME280;7999;51.208;4.244;2022-08-20T04:43:25;101698.47;;;14.89;99.73
15794;BME280;7999;51.208;4.244;2022-08-20T04:45:53;101703.72;;;14.88;99.46
15794;BME280;7999;51.208;4.244;2022-08-20T04:48:22;101700.28;;;14.72;99.80
15794;BME280;7999;51.208;4.244;2022-08-20T04:50:51;101702.00;;;14.73;100.00
15794;BME280;7999;51.208;4.244;2022-08-20T04:53:19;101700.25;;;14.78;99.38
15794;BME280;7999;51.208;4.244;2022-08-20T04:55:46;101699.38;;;14.77;98.69
15794;BME280;7999;51.208;4.244;2022-08-20T04:58:14;101708.13;;;14.73;99.38
15794;BME280;7999;51.208;4.244;2022-08-20T05:00:44;101702.88;;;14.75;99.08
15794;BME280;7999;51.208;4.244;2022-08-20T05:03:11;101713.31;;;14.86;99.78
15794;BME280;7999;51.208;4.244;2022-08-20T05:05:37;101714.19;;;14.86;98.91
15794;BME280;7999;51.208;4.244;2022-08-20T05:08:07;101713.38;;;14.79;99.18
15794;BME280;7999;51.208;4.244;2022-08-20T05:10:34;101709.91;;;14.65;99.95
15794;BME280;7999;51.208;4.244;2022-08-20T05:13:02;101720.34;;;14.71;100.00
15794;BME280;7999;51.208;4.244;2022-08-20T05:15:32;101717.72;;;14.82;99.50
15794;BME280;7999;51.208;4.244;2022-08-20T05:17:59;101725.56;;;14.77;100.00
15794;BME280;7999;51.208;4.244;2022-08-20T05:20:28;101722.06;;;14.81;100.00
15794;BME280;7999;51.208;4.244;2022-08-20T05:22:56;101723.78;;;14.90;100.00
15794;BME280;7999;51.208;4.244;2022-08-20T05:25:24;101728.16;;;14.88;100.00
15794;BME280;7999;51.208;4.244;2022-08-20T05:27:55;101725.53;;;14.91;100.00
15794;BME280;7999;51.208;4.244;2022-08-20T05:30:22;101724.63;;;14.95;100.00
15794;BME280;7999;51.208;4.244;2022-08-20T05:32:49;101730.75;;;14.91;100.00
15794;BME280;7999;51.208;4.244;2022-08-20T05:35:15;101735.09;;;14.98;100.00
15794;BME280;7999;51.208;4.244;2022-08-20T05:37:42;101743.78;;;15.03;99.64
15794;BME280;7999;51.208;4.244;2022-08-20T05:40:10;101749.88;;;15.13;99.66
15794;BME280;7999;51.208;4.244;2022-08-20T05:42:40;101751.59;;;15.17;99.43
15794;BME280;7999;51.208;4.244;2022-08-20T05:45:07;101755.91;;;15.26;99.59
15794;BME280;7999;51.208;4.244;2022-08-20T05:47:37;101747.19;;;15.24;100.00
15794;BME280;7999;51.208;4.244;2022-08-20T05:50:04;101749.78;;;15.27;99.87
15794;BME280;7999;51.208;4.244;2022-08-20T05:52:31;101748.75;;;15.57;98.64
15794;BME280;7999;51.208;4.244;2022-08-20T05:54:58;101761.78;;;15.72;97.78
15794;BME280;7999;51.208;4.244;2022-08-20T05:57:25;101771.13;;;16.08;97.03
15794;BME280;7999;51.208;4.244;2022-08-20T05:59:53;101765.69;;;16.32;95.35
15794;BME280;7999;51.208;4.244;2022-08-20T06:02:20;101769.19;;;16.31;94.26
15794;BME280;7999;51.208;4.244;2022-08-20T06:05:04;101768.72;;;16.80;93.41
15794;BME280;7999;51.208;4.244;2022-08-20T06:07:31;101766.72;;;17.04;91.28
15794;BME280;7999;51.208;4.244;2022-08-20T06:09:58;101764.53;;;17.36;90.53
15794;BME280;7999;51.208;4.244;2022-08-20T06:12:25;101759.94;;;17.50;89.66
15794;BME280;7999;51.208;4.244;2022-08-20T06:14:54;101760.75;;;17.57;88.33
15794;BME280;7999;51.208;4.244;2022-08-20T06:17:21;101753.56;;;17.67;89.54
15794;BME280;7999;51.208;4.244;2022-08-20T06:19:48;101756.75;;;17.90;87.92
15794;BME280;7999;51.208;4.244;2022-08-20T06:22:15;101761.19;;;18.39;86.99
15794;BME280;7999;51.208;4.244;2022-08-20T06:24:43;101756.81;;;18.86;83.91
15794;BME280;7999;51.208;4.244;2022-08-20T06:27:11;101752.13;;;19.00;82.90
15794;BME280;7999;51.208;4.244;2022-08-20T06:29:39;101761.41;;;19.19;82.55
15794;BME280;7999;51.208;4.244;2022-08-20T06:32:07;101758.63;;;19.65;80.52
15794;BME280;7999;51.208;4.244;2022-08-20T06:34:35;101753.72;;;19.87;79.25
15794;BME280;7999;51.208;4.244;2022-08-20T06:37:01;101751.50;;;20.06;78.50
15794;BME280;7999;51.208;4.244;2022-08-20T06:39:38;101755.75;;;20.12;77.84
15794;BME280;7999;51.208;4.244;2022-08-20T06:42:05;101752.88;;;20.56;76.17
15794;BME280;7999;51.208;4.244;2022-08-20T06:44:32;101762.09;;;20.40;76.03
15794;BME280;7999;51.208;4.244;2022-08-20T06:47:01;101762.72;;;20.82;74.91
15794;BME280;7999;51.208;4.244;2022-08-20T06:49:30;101762.00;;;20.76;77.11
15794;BME280;7999;51.208;4.244;2022-08-20T06:51:56;101765.75;;;20.98;74.64
15794;BME280;7999;51.208;4.244;2022-08-20T06:54:23;101760.13;;;21.41;73.44
15794;BME280;7999;51.208;4.244;2022-08-20T06:56:50;101759.63;;;21.56;72.59
15794;BME280;7999;51.208;4.244;2022-08-20T06:59:18;101768.75;;;22.02;70.96
15794;BME280;7999;51.208;4.244;2022-08-20T07:01:45;101750.53;;;22.94;68.48
15794;BME280;7999;51.208;4.244;2022-08-20T07:04:13;101759.75;;;22.34;68.79
15794;BME280;7999;51.208;4.244;2022-08-20T07:06:42;101761.06;;;22.71;69.11
15794;BME280;7999;51.208;4.244;2022-08-20T07:09:09;101774.47;;;23.16;68.29
15794;BME280;7999;51.208;4.244;2022-08-20T07:11:36;101786.06;;;22.39;70.82
15794;BME280;7999;51.208;4.244;2022-08-20T07:14:03;101777.53;;;23.29;66.82
15794;BME280;7999;51.208;4.244;2022-08-20T07:16:30;101776.13;;;23.19;67.06
15794;BME280;7999;51.208;4.244;2022-08-20T07:18:57;101779.56;;;24.11;64.47
15794;BME280;7999;51.208;4.244;2022-08-20T07:21:25;101766.19;;;24.34;63.60
15794;BME280;7999;51.208;4.244;2022-08-20T07:23:54;101771.13;;;24.44;62.32
15794;BME280;7999;51.208;4.244;2022-08-20T07:26:21;101763.81;;;24.27;63.78
15794;BME280;7999;51.208;4.244;2022-08-20T07:28:48;101772.34;;;24.76;60.94
15794;BME280;7999;51.208;4.244;2022-08-20T07:31:15;101771.34;;;24.38;62.44
15794;BME280;7999;51.208;4.244;2022-08-20T07:34:00;101766.97;;;24.57;61.83
15794;BME280;7999;51.208;4.244;2022-08-20T07:36:26;101783.56;;;24.82;62.35
15794;BME280;7999;51.208;4.244;2022-08-20T07:38:55;101771.06;;;25.05;60.97
15794;BME280;7999;51.208;4.244;2022-08-20T07:41:23;101778.47;;;25.17;60.17
15794;BME280;7999;51.208;4.244;2022-08-20T07:43:49;101790.50;;;25.82;59.02
15794;BME280;7999;51.208;4.244;2022-08-20T07:46:17;101788.56;;;25.67;58.42
15794;BME280;7999;51.208;4.244;2022-08-20T07:48:46;101788.28;;;26.09;57.69
15794;BME280;7999;51.208;4.244;2022-08-20T07:51:14;101781.72;;;25.97;56.72
15794;BME280;7999;51.208;4.244;2022-08-20T07:53:42;101786.28;;;26.82;55.05
15794;BME280;7999;51.208;4.244;2022-08-20T07:56:12;101794.78;;;26.90;53.68
15794;BME280;7999;51.208;4.244;2022-08-20T07:58:43;101791.91;;;26.60;54.00
15794;BME280;7999;51.208;4.244;2022-08-20T08:01:14;101789.38;;;26.22;54.71
15794;BME280;7999;51.208;4.244;2022-08-20T08:03:42;101789.94;;;26.46;53.68
15794;BME280;7999;51.208;4.244;2022-08-20T08:06:09;101791.88;;;26.25;54.04
15794;BME280;7999;51.208;4.244;2022-08-20T08:08:36;101796.50;;;26.73;53.62
15794;BME280;7999;51.208;4.244;2022-08-20T08:11:04;101797.13;;;26.78;52.91
15794;BME280;7999;51.208;4.244;2022-08-20T08:13:34;101795.41;;;27.44;51.02
15794;BME280;7999;51.208;4.244;2022-08-20T08:16:03;101794.28;;;26.99;50.94
15794;BME280;7999;51.208;4.244;2022-08-20T08:18:33;101788.19;;;27.77;48.83
15794;BME280;7999;51.208;4.244;2022-08-20T08:21:02;101790.31;;;26.56;51.73
15794;BME280;7999;51.208;4.244;2022-08-20T08:23:30;101800.03;;;27.56;50.56
15794;BME280;7999;51.208;4.244;2022-08-20T08:25:57;101787.94;;;28.12;48.30
15794;BME280;7999;51.208;4.244;2022-08-20T08:28:24;101789.00;;;28.39;45.09
15794;BME280;7999;51.208;4.244;2022-08-20T08:30:55;101789.72;;;27.97;46.54
15794;BME280;7999;51.208;4.244;2022-08-20T08:33:23;101786.00;;;28.74;42.34
15794;BME280;7999;51.208;4.244;2022-08-20T08:35:53;101793.28;;;28.12;42.29
15794;BME280;7999;51.208;4.244;2022-08-20T08:38:20;101795.69;;;28.46;43.66
15794;BME280;7999;51.208;4.244;2022-08-20T08:40:47;101794.44;;;28.82;44.27
15794;BME280;7999;51.208;4.244;2022-08-20T08:43:15;101785.44;;;28.69;43.34
15794;BME280;7999;51.208;4.244;2022-08-20T08:45:46;101797.47;;;28.61;41.34
15794;BME280;7999;51.208;4.244;2022-08-20T08:48:18;101795.94;;;26.84;44.93
15794;BME280;7999;51.208;4.244;2022-08-20T08:50:45;101792.28;;;27.35;41.72
15794;BME280;7999;51.208;4.244;2022-08-20T08:53:16;101790.13;;;27.26;43.59
15794;BME280;7999;51.208;4.244;2022-08-20T08:55:44;101789.44;;;28.01;41.50
15794;BME280;7999;51.208;4.244;2022-08-20T08:58:11;101784.97;;;28.76;38.93
15794;BME280;7999;51.208;4.244;2022-08-20T09:00:39;101793.59;;;28.96;38.03
15794;BME280;7999;51.208;4.244;2022-08-20T09:03:07;101796.88;;;28.56;40.03
15794;BME280;7999;51.208;4.244;2022-08-20T09:05:37;101800.97;;;28.92;36.93
15794;BME280;7999;51.208;4.244;2022-08-20T09:08:06;101789.28;;;28.93;36.29
15794;BME280;7999;51.208;4.244;2022-08-20T09:10:33;101797.72;;;28.87;37.05
15794;BME280;7999;51.208;4.244;2022-08-20T09:13:01;101792.16;;;28.90;36.42
15794;BME280;7999;51.208;4.244;2022-08-20T09:15:28;101802.00;;;29.18;37.00
15794;BME280;7999;51.208;4.244;2022-08-20T09:17:55;101791.00;;;27.90;39.07
15794;BME280;7999;51.208;4.244;2022-08-20T09:20:22;101793.91;;;26.89;42.07
15794;BME280;7999;51.208;4.244;2022-08-20T09:22:50;101787.59;;;27.72;40.25
15794;BME280;7999;51.208;4.244;2022-08-20T09:25:17;101784.69;;;27.12;40.85
15794;BME280;7999;51.208;4.244;2022-08-20T09:27:44;101785.09;;;26.37;43.36
15794;BME280;7999;51.208;4.244;2022-08-20T09:30:11;101788.06;;;26.48;42.80
15794;BME280;7999;51.208;4.244;2022-08-20T09:32:38;101792.50;;;26.13;41.96
15794;BME280;7999;51.208;4.244;2022-08-20T09:35:05;101792.97;;;25.30;44.17
15794;BME280;7999;51.208;4.244;2022-08-20T09:37:32;101796.25;;;25.16;46.24
15794;BME280;7999;51.208;4.244;2022-08-20T09:40:00;101802.88;;;24.47;47.86
15794;BME280;7999;51.208;4.244;2022-08-20T09:42:28;101811.94;;;23.99;50.00
15794;BME280;7999;51.208;4.244;2022-08-20T09:44:55;101808.41;;;23.77;49.86
15794;BME280;7999;51.208;4.244;2022-08-20T09:47:22;101811.88;;;23.55;51.11
15794;BME280;7999;51.208;4.244;2022-08-20T09:49:49;101812.91;;;23.74;51.70
15794;BME280;7999;51.208;4.244;2022-08-20T09:52:19;101816.13;;;24.04;51.79
15794;BME280;7999;51.208;4.244;2022-08-20T09:54:47;101802.91;;;24.03;51.29
15794;BME280;7999;51.208;4.244;2022-08-20T09:57:15;101809.16;;;24.02;49.76
15794;BME280;7999;51.208;4.244;2022-08-20T09:59:50;101808.09;;;24.06;49.32
15794;BME280;7999;51.208;4.244;2022-08-20T10:02:18;101800.75;;;24.75;47.66
15794;BME280;7999;51.208;4.244;2022-08-20T10:04:45;101804.34;;;24.54;47.43
15794;BME280;7999;51.208;4.244;2022-08-20T10:07:12;101800.66;;;25.74;46.17
15794;BME280;7999;51.208;4.244;2022-08-20T10:09:39;101797.53;;;25.45;45.91
15794;BME280;7999;51.208;4.244;2022-08-20T10:12:06;101794.00;;;25.64;44.86
15794;BME280;7999;51.208;4.244;2022-08-20T10:14:35;101787.03;;;26.51;40.64
15794;BME280;7999;51.208;4.244;2022-08-20T10:17:02;101782.53;;;27.34;39.55
15794;BME280;7999;51.208;4.244;2022-08-20T10:19:29;101783.94;;;27.89;38.50
15794;BME280;7999;51.208;4.244;2022-08-20T10:21:56;101791.06;;;27.25;38.88
15794;BME280;7999;51.208;4.244;2022-08-20T10:24:23;101790.16;;;26.76;39.38
15794;BME280;7999;51.208;4.244;2022-08-20T10:26:53;101793.50;;;26.97;40.62
15794;BME280;7999;51.208;4.244;2022-08-20T10:29:20;101792.41;;;27.01;39.42
15794;BME280;7999;51.208;4.244;2022-08-20T10:31:48;101792.81;;;27.42;39.33
15794;BME280;7999;51.208;4.244;2022-08-20T10:34:16;101787.56;;;28.18;36.50
15794;BME280;7999;51.208;4.244;2022-08-20T10:36:42;101794.47;;;26.78;38.59
15794;BME280;7999;51.208;4.244;2022-08-20T10:39:09;101787.72;;;27.22;39.09
15794;BME280;7999;51.208;4.244;2022-08-20T10:41:36;101793.91;;;27.38;39.93
15794;BME280;7999;51.208;4.244;2022-08-20T10:44:04;101792.56;;;27.62;37.71
15794;BME280;7999;51.208;4.244;2022-08-20T10:46:30;101794.81;;;28.16;37.08
15794;BME280;7999;51.208;4.244;2022-08-20T10:48:59;101781.56;;;26.00;37.56
15794;BME280;7999;51.208;4.244;2022-08-20T10:51:26;101788.91;;;27.16;38.05
15794;BME280;7999;51.208;4.244;2022-08-20T10:53:53;101782.44;;;26.37;38.26
15794;BME280;7999;51.208;4.244;2022-08-20T10:56:20;101781.34;;;26.58;39.19
15794;BME280;7999;51.208;4.244;2022-08-20T10:58:50;101780.00;;;27.00;38.52
15794;BME280;7999;51.208;4.244;2022-08-20T11:01:17;101781.06;;;25.75;41.61
15794;BME280;7999;51.208;4.244;2022-08-20T11:03:43;101779.56;;;24.92;42.90
15794;BME280;7999;51.208;4.244;2022-08-20T11:06:12;101789.81;;;24.20;44.19
15794;BME280;7999;51.208;4.244;2022-08-20T11:08:38;101790.41;;;24.05;45.08
15794;BME280;7999;51.208;4.244;2022-08-20T11:11:06;101786.16;;;24.01;45.45
15794;BME280;7999;51.208;4.244;2022-08-20T11:13:33;101790.66;;;24.43;44.39
15794;BME280;7999;51.208;4.244;2022-08-20T11:16:00;101788.25;;;25.73;43.11
15794;BME280;7999;51.208;4.244;2022-08-20T11:18:28;101784.63;;;26.96;40.02
15794;BME280;7999;51.208;4.244;2022-08-20T11:20:55;101781.09;;;27.45;39.95
15794;BME280;7999;51.208;4.244;2022-08-20T11:23:24;101781.59;;;27.35;39.67
15794;BME280;7999;51.208;4.244;2022-08-20T11:25:52;101781.25;;;27.57;38.90
15794;BME280;7999;51.208;4.244;2022-08-20T11:28:19;101785.59;;;28.51;39.10
15794;BME280;7999;51.208;4.244;2022-08-20T11:30:46;101785.84;;;28.77;37.77
15794;BME280;7999;51.208;4.244;2022-08-20T11:33:14;101782.75;;;29.26;36.43
15794;BME280;7999;51.208;4.244;2022-08-20T11:35:41;101797.88;;;28.25;36.19
15794;BME280;7999;51.208;4.244;2022-08-20T11:38:07;101788.16;;;27.46;37.22
15794;BME280;7999;51.208;4.244;2022-08-20T11:40:35;101782.94;;;25.73;40.22
15794;BME280;7999;51.208;4.244;2022-08-20T11:43:02;101789.63;;;25.81;41.16
15794;BME280;7999;51.208;4.244;2022-08-20T11:45:29;101791.78;;;26.27;40.07
15794;BME280;7999;51.208;4.244;2022-08-20T11:47:56;101779.72;;;26.71;38.05
15794;BME280;7999;51.208;4.244;2022-08-20T11:50:23;101786.81;;;27.70;37.11
15794;BME280;7999;51.208;4.244;2022-08-20T11:52:50;101793.34;;;27.49;37.40
15794;BME280;7999;51.208;4.244;2022-08-20T11:55:16;101791.97;;;26.06;39.75
15794;BME280;7999;51.208;4.244;2022-08-20T11:57:45;101793.09;;;26.01;40.33
15794;BME280;7999;51.208;4.244;2022-08-20T12:00:13;101789.66;;;25.99;40.71
15794;BME280;7999;51.208;4.244;2022-08-20T12:02:41;101791.47;;;26.15;39.44
15794;BME280;7999;51.208;4.244;2022-08-20T12:05:08;101788.34;;;26.07;40.16
15794;BME280;7999;51.208;4.244;2022-08-20T12:07:36;101790.34;;;27.06;37.41
15794;BME280;7999;51.208;4.244;2022-08-20T12:10:03;101789.91;;;27.62;38.60
15794;BME280;7999;51.208;4.244;2022-08-20T12:12:30;101793.84;;;27.24;37.62
15794;BME280;7999;51.208;4.244;2022-08-20T12:14:59;101791.28;;;27.05;39.90
15794;BME280;7999;51.208;4.244;2022-08-20T12:17:27;101790.03;;;26.95;40.55
15794;BME280;7999;51.208;4.244;2022-08-20T12:19:55;101792.19;;;26.88;40.62
15794;BME280;7999;51.208;4.244;2022-08-20T12:22:23;101799.53;;;26.83;41.17
15794;BME280;7999;51.208;4.244;2022-08-20T12:24:50;101791.06;;;27.25;41.33
15794;BME280;7999;51.208;4.244;2022-08-20T12:27:17;101797.97;;;26.96;40.01
15794;BME280;7999;51.208;4.244;2022-08-20T12:29:45;101802.28;;;26.82;40.47
15794;BME280;7999;51.208;4.244;2022-08-20T12:32:14;101798.50;;;25.82;41.22
15794;BME280;7999;51.208;4.244;2022-08-20T12:34:41;101804.94;;;25.95;41.88
15794;BME280;7999;51.208;4.244;2022-08-20T12:37:08;101803.31;;;25.74;42.22
15794;BME280;7999;51.208;4.244;2022-08-20T12:39:36;101806.03;;;25.72;42.51
15794;BME280;7999;51.208;4.244;2022-08-20T12:42:04;101798.56;;;25.24;44.24
15794;BME280;7999;51.208;4.244;2022-08-20T12:44:31;101809.63;;;25.15;44.12
15794;BME280;7999;51.208;4.244;2022-08-20T12:47:07;101806.84;;;24.77;43.98
15794;BME280;7999;51.208;4.244;2022-08-20T12:49:36;101807.47;;;24.43;45.21
15794;BME280;7999;51.208;4.244;2022-08-20T12:52:04;101808.56;;;24.38;45.41
15794;BME280;7999;51.208;4.244;2022-08-20T12:54:30;101808.84;;;24.52;45.51
15794;BME280;7999;51.208;4.244;2022-08-20T12:56:57;101814.66;;;24.19;45.69
15794;BME280;7999;51.208;4.244;2022-08-20T12:59:24;101815.38;;;24.23;45.42
15794;BME280;7999;51.208;4.244;2022-08-20T13:01:51;101815.88;;;24.32;45.81
15794;BME280;7999;51.208;4.244;2022-08-20T13:04:18;101803.41;;;24.95;44.16